createdAt,value
2019-04-26T12:04:53.778Z,22.81
2019-04-26T12:05:51.076Z,23.09
2019-04-26T12:06:51.113Z,23.29
2019-04-26T12:07:51.078Z,23.52
2019-04-26T12:08:51.155Z,23.68
2019-04-26T12:09:51.037Z,24.04
2019-04-26T12:10:51.129Z,24.21
2019-04-26T12:12:04.048Z,24.48
2019-04-26T12:12:52.184Z,24.66
2019-04-26T12:13:50.996Z,24.87
2019-04-26T12:14:51.112Z,24.98
2019-04-26T12:15:50.972Z,25.09
2019-04-26T12:16:54.985Z,25.14
2019-04-26T12:17:58.407Z,25.24
2019-04-26T12:18:52.023Z,25.29
2019-04-26T12:19:52.326Z,25.44
2019-04-26T12:20:51.000Z,25.39
2019-04-26T12:21:50.916Z,25.42
2019-04-26T12:22:50.956Z,25.46
2019-04-26T12:23:51.297Z,25.48
2019-04-26T12:24:51.011Z,25.49
2019-04-26T12:25:50.861Z,25.54
2019-04-26T12:26:51.926Z,25.51
2019-04-26T12:27:53.423Z,25.63
2019-04-26T12:28:50.936Z,25.66
2019-04-26T12:29:50.810Z,25.66
2019-04-26T12:30:54.287Z,25.59
2019-04-26T12:31:51.803Z,25.69
2019-04-26T12:32:50.871Z,25.76
2019-04-26T12:33:50.773Z,25.75
2019-04-26T12:34:50.849Z,25.74
2019-04-26T12:35:56.786Z,25.90
2019-04-26T12:36:51.835Z,25.97
2019-04-26T12:37:54.614Z,25.96
2019-04-26T12:38:50.877Z,25.90
2019-04-26T12:39:50.697Z,25.98
2019-04-26T12:40:51.806Z,25.93
2019-04-26T12:41:50.671Z,25.93
2019-04-26T12:42:52.866Z,25.86
2019-04-26T12:43:54.473Z,25.82
2019-04-26T12:44:51.716Z,25.86
2019-04-26T12:45:51.459Z,25.85
2019-04-26T12:46:50.885Z,25.83
2019-04-26T12:47:50.683Z,25.97
2019-04-26T12:48:51.364Z,25.91
2019-04-26T12:49:50.582Z,25.86
2019-04-26T12:50:50.830Z,25.83
2019-04-26T12:51:52.106Z,25.83
2019-04-26T12:52:51.395Z,25.76
2019-04-26T12:53:50.542Z,25.71
2019-04-26T12:55:53.259Z,25.56
2019-04-26T12:56:50.599Z,25.66
2019-04-26T12:57:50.519Z,25.60
2019-04-26T12:59:51.472Z,25.48
2019-04-26T13:00:54.020Z,25.48
2019-04-26T13:01:50.477Z,25.44
2019-04-26T13:02:54.217Z,25.49
2019-04-26T13:03:51.428Z,25.39
2019-04-26T13:05:57.749Z,25.38
2019-04-26T13:06:51.492Z,25.39
2019-04-26T13:07:50.407Z,25.36
2019-04-26T13:08:51.505Z,25.42
2019-04-26T13:09:50.933Z,25.48
2019-04-26T13:10:50.476Z,25.49
2019-04-26T13:11:52.829Z,25.48
2019-04-26T13:12:51.554Z,25.45
2019-04-26T13:13:51.063Z,25.48
2019-04-26T13:14:50.855Z,25.51
2019-04-26T13:15:51.748Z,25.49
2019-04-26T13:16:50.530Z,25.51
2019-04-26T13:17:50.359Z,25.56
2019-04-26T13:18:51.440Z,25.56
2019-04-26T13:19:53.878Z,25.59
2019-04-26T13:20:51.334Z,25.59
2019-04-26T13:21:50.263Z,25.60
2019-04-26T13:22:54.284Z,25.60
2019-04-26T13:23:51.218Z,25.66
2019-04-26T13:24:50.962Z,25.66
2019-04-26T13:25:50.191Z,25.69
2019-04-26T13:26:50.439Z,25.74
2019-04-26T13:27:50.235Z,25.71
2019-04-26T13:28:52.441Z,25.75
2019-04-26T13:30:01.913Z,25.71
2019-04-26T13:30:51.137Z,25.74
2019-04-26T13:31:50.190Z,25.74
2019-04-26T13:32:53.436Z,25.74
2019-04-26T13:33:50.261Z,25.83
2019-04-26T13:34:50.092Z,25.91
2019-04-26T13:36:02.314Z,25.81
2019-04-26T13:36:51.081Z,25.86
2019-04-26T13:37:50.262Z,25.86
2019-04-26T13:38:50.070Z,25.90
2019-04-26T13:39:51.254Z,25.93
2019-04-26T13:40:50.030Z,25.93
2019-04-26T13:42:02.140Z,25.89
2019-04-26T13:42:51.480Z,25.96
2019-04-26T13:43:50.172Z,25.85
2019-04-26T13:44:50.022Z,25.98
2019-04-26T13:45:50.181Z,25.96
2019-04-26T13:46:49.976Z,26.01
2019-04-26T13:47:50.160Z,26.04
2019-04-26T13:48:49.984Z,26.08
2019-04-26T13:49:52.277Z,26.09
2019-04-26T13:50:49.922Z,26.11
2019-04-26T13:51:50.118Z,26.11
2019-04-26T13:52:49.910Z,26.09
2019-04-26T13:53:49.984Z,26.12
2019-04-26T13:54:51.246Z,26.04
2019-04-26T13:56:32.106Z,25.86
2019-04-26T13:56:50.898Z,25.76
2019-04-26T13:57:49.985Z,25.67
2019-04-26T13:58:49.873Z,25.66
2019-04-26T13:59:49.965Z,25.57
2019-04-26T14:00:49.816Z,25.49
2019-04-26T14:01:50.222Z,25.48
2019-04-26T14:02:50.033Z,25.38
2019-04-26T14:03:50.088Z,25.30
2019-04-26T14:04:49.776Z,25.34
2019-04-26T14:05:49.859Z,25.20
2019-04-26T14:06:49.776Z,25.24
2019-04-26T14:07:49.838Z,25.24
2019-04-26T14:08:49.726Z,25.12
2019-04-26T14:10:11.462Z,25.22
2019-04-26T14:10:51.775Z,25.24
2019-04-26T14:11:49.810Z,25.16
2019-04-26T14:12:50.157Z,25.23
2019-04-26T14:13:49.736Z,25.24
2019-04-26T14:14:49.678Z,25.17
2019-04-26T14:15:51.965Z,25.11
2019-04-26T14:16:52.095Z,25.12
2019-04-26T14:17:50.788Z,25.07
2019-04-26T14:18:49.626Z,25.17
2019-04-26T14:19:51.045Z,25.07
2019-04-26T14:20:49.607Z,25.08
2019-04-26T14:21:49.712Z,24.98
2019-04-26T14:22:49.582Z,25.04
2019-04-26T14:23:51.050Z,24.98
2019-04-26T14:24:53.094Z,24.94
2019-04-26T14:25:50.780Z,24.93
2019-04-26T14:26:49.536Z,24.92
2019-04-26T14:27:51.193Z,24.83
2019-04-26T14:28:49.514Z,24.84
2019-04-26T14:29:49.617Z,24.80
2019-04-26T14:30:49.496Z,24.82
2019-04-26T14:31:51.350Z,24.77
2019-04-26T14:32:52.883Z,24.71
2019-04-26T14:33:49.542Z,24.82
2019-04-26T14:34:49.473Z,24.71
2019-04-26T14:35:50.633Z,24.80
2019-04-26T14:36:49.425Z,24.75
2019-04-26T14:37:50.284Z,24.75
2019-04-26T14:38:49.410Z,24.71
2019-04-26T14:39:50.901Z,24.71
2019-04-26T14:40:56.916Z,24.70
2019-04-26T14:41:52.816Z,24.67
2019-04-26T14:43:05.699Z,24.71
2019-04-26T14:43:52.487Z,24.74
2019-04-26T14:44:50.470Z,24.67
2019-04-26T14:45:55.755Z,24.67
2019-04-26T14:46:53.274Z,24.71
2019-04-26T14:47:50.299Z,24.71
2019-04-26T14:49:01.084Z,24.82
2019-04-26T14:49:53.286Z,24.68
2019-04-26T14:50:53.155Z,24.74
2019-04-26T14:51:51.211Z,24.79
2019-04-26T14:52:49.374Z,24.70
2019-04-26T14:53:49.271Z,24.70
2019-04-26T14:54:49.443Z,24.70
2019-04-26T14:55:51.264Z,24.74
2019-04-26T14:56:52.385Z,24.75
2019-04-26T14:57:51.355Z,24.70
2019-04-26T14:58:49.306Z,24.68
2019-04-26T14:59:49.172Z,24.71
2019-04-26T15:00:51.484Z,24.70
2019-04-26T15:01:50.154Z,24.74
2019-04-26T15:02:49.211Z,24.70
2019-04-26T15:03:51.382Z,24.74
2019-04-26T15:04:50.344Z,24.67
2019-04-26T15:05:49.142Z,24.70
2019-04-26T15:06:51.934Z,24.77
2019-04-26T15:07:52.006Z,24.74
2019-04-26T15:09:50.242Z,24.70
2019-04-26T15:11:10.221Z,24.68
2019-04-26T15:11:56.919Z,24.68
2019-04-26T15:12:58.368Z,24.68
2019-04-26T15:13:50.029Z,24.79
2019-04-26T15:14:49.370Z,24.75
2019-04-26T15:15:49.020Z,24.64
2019-04-26T15:16:51.041Z,24.67
2019-04-26T15:17:48.987Z,24.60
2019-04-26T15:18:49.165Z,24.60
2019-04-26T15:19:48.956Z,24.64
2019-04-26T15:20:49.067Z,24.63
2019-04-26T15:21:48.940Z,24.68
2019-04-26T15:23:50.089Z,24.71
2019-04-26T15:24:48.964Z,24.68
2019-04-26T15:25:49.855Z,24.75
2019-04-26T15:26:58.164Z,24.71
2019-04-26T15:27:49.884Z,24.75
2019-04-26T15:28:50.377Z,24.67
2019-04-26T15:29:48.852Z,24.66
2019-04-26T15:30:49.096Z,24.70
2019-04-26T15:31:48.826Z,24.64
2019-04-26T15:32:48.943Z,24.66
2019-04-26T15:33:50.080Z,24.66
2019-04-26T15:35:50.103Z,24.60
2019-04-26T15:36:49.508Z,24.68
2019-04-26T15:38:50.039Z,24.59
2019-04-26T15:39:50.229Z,24.63
2019-04-26T15:41:51.331Z,24.64
2019-04-26T15:43:50.294Z,24.59
2019-04-26T15:44:49.026Z,24.59
2019-04-26T15:45:48.883Z,24.61
2019-04-26T15:46:49.844Z,24.59
2019-04-26T15:47:48.818Z,24.59
2019-04-26T15:48:50.411Z,24.61
2019-04-26T15:49:49.639Z,24.61
2019-04-26T15:50:52.037Z,24.56
2019-04-26T15:51:49.746Z,24.67
2019-04-26T15:52:48.609Z,24.61
2019-04-26T15:54:52.971Z,24.60
2019-04-26T15:55:49.576Z,24.63
2019-04-26T15:56:49.429Z,24.64
2019-04-26T15:57:48.584Z,24.60
2019-04-26T15:58:49.192Z,24.59
2019-04-26T15:59:48.530Z,24.48
2019-04-26T16:01:49.692Z,24.41
2019-04-26T16:02:49.630Z,24.42
2019-04-26T16:03:48.485Z,24.41
2019-04-26T16:04:51.397Z,24.31
2019-04-26T16:06:49.501Z,24.29
2019-04-26T16:07:48.540Z,24.19
2019-04-26T16:09:53.363Z,24.19
2019-04-26T16:10:49.611Z,24.12
2019-04-26T16:11:50.483Z,24.12
2019-04-26T16:12:48.509Z,24.14
2019-04-26T16:13:54.170Z,24.08
2019-04-26T16:14:49.501Z,24.08
2019-04-26T16:15:49.658Z,24.12
2019-04-26T16:16:48.446Z,24.11
2019-04-26T16:17:48.329Z,24.08
2019-04-26T16:18:50.022Z,24.04
2019-04-26T16:19:48.300Z,23.99
2019-04-26T16:20:48.434Z,24.11
2019-04-26T16:21:52.129Z,24.02
2019-04-26T16:22:49.395Z,24.00
2019-04-26T16:23:52.000Z,23.97
2019-04-26T16:24:53.436Z,23.99
2019-04-26T16:25:48.259Z,23.90
2019-04-26T16:26:50.614Z,24.02
2019-04-26T16:27:48.214Z,23.87
2019-04-26T16:28:48.365Z,23.86
2019-04-26T16:29:50.946Z,23.90
2019-04-26T16:30:49.284Z,23.84
2019-04-26T16:31:48.184Z,23.92
2019-04-26T16:32:52.657Z,23.87
2019-04-26T16:33:49.147Z,23.81
2019-04-26T16:34:49.318Z,23.82
2019-04-26T16:35:48.136Z,23.81
2019-04-26T16:36:48.228Z,23.81
2019-04-26T16:37:48.105Z,23.81
2019-04-26T16:38:48.657Z,23.77
2019-04-26T16:39:49.109Z,23.75
2019-04-26T16:40:51.972Z,23.78
2019-04-26T16:41:49.060Z,23.84
2019-04-26T16:42:49.836Z,23.81
2019-04-26T16:43:53.048Z,23.79
2019-04-26T16:44:53.100Z,23.81
2019-04-26T16:45:48.052Z,23.81
2019-04-26T16:46:53.919Z,23.79
2019-04-26T16:47:48.995Z,23.78
2019-04-26T16:49:49.158Z,23.71
2019-04-26T16:51:53.986Z,23.74
2019-04-26T16:52:48.958Z,23.67
2019-04-26T16:54:49.118Z,23.72
2019-04-26T16:55:52.293Z,23.74
2019-04-26T16:56:48.898Z,23.71
2019-04-26T16:57:54.911Z,23.68
2019-04-26T16:58:48.887Z,23.62
2019-04-26T16:59:54.338Z,23.63
2019-04-26T17:00:54.731Z,23.71
2019-04-26T17:01:48.837Z,23.74
2019-04-26T17:02:47.926Z,23.69
2019-04-26T17:03:48.279Z,23.67
2019-04-26T17:04:48.013Z,23.63
2019-04-26T17:05:48.737Z,23.68
2019-04-26T17:06:47.904Z,23.60
2019-04-26T17:07:47.773Z,23.62
2019-04-26T17:08:49.867Z,23.52
2019-04-26T17:09:58.973Z,23.53
2019-04-26T17:10:48.764Z,23.56
2019-04-26T17:11:47.871Z,23.52
2019-04-26T17:12:50.575Z,23.53
2019-04-26T17:13:53.530Z,23.42
2019-04-26T17:14:49.100Z,23.49
2019-04-26T17:15:52.093Z,23.41
2019-04-26T17:16:48.706Z,23.44
2019-04-26T17:17:50.446Z,23.42
2019-04-26T17:18:47.654Z,23.37
2019-04-26T17:19:49.855Z,23.35
2019-04-26T17:20:48.280Z,23.32
2019-04-26T17:21:47.818Z,23.29
2019-04-26T17:22:58.462Z,23.41
2019-04-26T17:23:48.601Z,23.31
2019-04-26T17:24:47.680Z,23.21
2019-04-26T17:25:47.582Z,23.22
2019-04-26T17:26:47.782Z,23.23
2019-04-26T17:27:47.562Z,23.23
2019-04-26T17:28:47.712Z,23.19
2019-04-26T17:29:47.534Z,23.19
2019-04-26T17:30:47.684Z,23.19
2019-04-26T17:31:47.526Z,23.18
2019-04-26T17:32:51.672Z,23.14
2019-04-26T17:33:48.490Z,23.07
2019-04-26T17:35:48.632Z,23.09
2019-04-26T17:36:52.263Z,23.16
2019-04-26T17:37:47.440Z,23.11
2019-04-26T17:38:47.563Z,23.14
2019-04-26T17:39:51.330Z,23.06
2019-04-26T17:40:50.408Z,23.11
2019-04-26T17:41:50.626Z,23.04
2019-04-26T17:42:48.512Z,23.07
2019-04-26T17:43:51.868Z,23.06
2019-04-26T17:45:48.598Z,23.07
2019-04-26T17:46:48.966Z,23.11
2019-04-26T17:47:48.686Z,23.14
2019-04-26T17:50:35.456Z,23.01
2019-04-26T17:51:41.768Z,23.03
2019-04-26T17:52:36.292Z,22.94
2019-04-26T17:53:34.284Z,22.91
2019-04-26T17:54:46.138Z,22.89
2019-04-26T17:55:35.373Z,22.86
2019-04-26T17:56:37.577Z,22.88
2019-04-26T17:57:37.054Z,22.86
2019-04-26T17:58:48.969Z,22.88
2019-04-26T17:59:36.854Z,22.84
2019-04-26T18:00:45.366Z,22.79
2019-04-26T18:01:46.862Z,22.81
2019-04-26T18:02:42.133Z,22.79
2019-04-26T18:03:35.295Z,22.84
2019-04-26T18:04:37.373Z,22.69
2019-04-26T18:05:55.986Z,22.72
2019-04-26T18:06:35.155Z,22.61
2019-04-26T18:07:40.521Z,22.51
2019-04-26T18:08:41.076Z,22.42
2019-04-26T18:09:43.900Z,22.45
2019-04-26T18:10:35.494Z,22.36
2019-04-26T18:11:35.254Z,22.36
2019-04-26T18:12:39.491Z,22.31
2019-04-26T18:14:35.246Z,22.35
2019-04-26T18:16:35.212Z,22.27
2019-04-26T18:17:38.902Z,22.21
2019-04-26T18:18:35.002Z,22.24
2019-04-26T18:19:34.068Z,22.27
2019-04-26T18:20:37.467Z,22.26
2019-04-26T18:22:36.361Z,22.26
2019-04-26T18:24:35.149Z,22.17
2019-04-26T18:25:34.075Z,22.14
2019-04-26T18:27:38.326Z,22.15
2019-04-26T18:28:34.089Z,22.19
2019-04-26T18:29:34.121Z,22.15
2019-04-26T18:30:34.258Z,22.19
2019-04-26T18:31:34.041Z,22.17
2019-04-26T18:32:41.816Z,22.17
2019-04-26T18:33:34.974Z,22.21
2019-04-26T18:34:37.180Z,22.06
2019-04-26T18:45:58.635Z,21.64
2019-04-26T18:46:58.018Z,21.64
2019-04-26T18:48:01.303Z,21.63
2019-04-26T18:48:58.007Z,21.64
